createdAt,value
2023-12-24T00:04:36.610Z,7.70
2023-12-24T00:19:38.450Z,8.14
2023-12-24T00:34:40.166Z,8.82
2023-12-24T00:49:41.869Z,9.33
2023-12-24T01:04:44.408Z,9.50
2023-12-24T01:19:46.386Z,9.56
2023-12-24T01:34:48.154Z,9.52
2023-12-24T01:49:50.796Z,9.42
2023-12-24T02:04:52.610Z,9.35
2023-12-24T02:19:54.518Z,9.35
2023-12-24T02:35:00.778Z,9.34
2023-12-24T02:50:04.483Z,9.22
2023-12-24T03:05:06.563Z,9.11
2023-12-24T03:20:09.595Z,9.06
2023-12-24T03:35:11.436Z,9.14
2023-12-24T03:50:13.273Z,9.31
2023-12-24T04:05:15.111Z,9.38
2023-12-24T04:20:16.922Z,9.23
2023-12-24T04:35:18.694Z,9.17
2023-12-24T04:50:20.460Z,9.15
2023-12-24T05:05:22.834Z,9.25
2023-12-24T05:20:24.705Z,9.27
2023-12-24T05:35:26.518Z,9.33
2023-12-24T05:50:28.555Z,9.50
2023-12-24T06:05:30.423Z,9.38
2023-12-24T06:20:33.712Z,9.30
2023-12-24T06:35:35.641Z,9.48
2023-12-24T06:50:37.440Z,9.61
2023-12-24T07:05:39.833Z,9.81
2023-12-24T07:20:41.714Z,9.84
2023-12-24T07:35:43.527Z,10.17
2023-12-24T07:50:45.371Z,10.47
2023-12-24T08:05:48.010Z,10.77
2023-12-24T08:20:49.950Z,11.18
2023-12-24T08:35:51.746Z,11.76
2023-12-24T08:50:53.759Z,12.58
2023-12-24T09:05:55.594Z,13.97
2023-12-24T09:20:57.428Z,15.05
2023-12-24T09:35:59.374Z,15.89
2023-12-24T09:51:01.478Z,15.69
2023-12-24T10:06:10.652Z,15.89
2023-12-24T10:21:12.602Z,16.71
2023-12-24T10:36:14.260Z,17.05
2023-12-24T10:51:15.940Z,16.94
2023-12-24T11:06:41.749Z,16.28
2023-12-24T11:22:11.967Z,15.35
2023-12-24T11:37:29.537Z,15.32
2023-12-24T11:52:31.446Z,14.80
2023-12-24T12:07:34.003Z,14.65
2023-12-24T12:22:35.745Z,14.34
2023-12-24T12:37:37.557Z,14.57
2023-12-24T12:52:39.466Z,14.78
2023-12-24T13:07:41.171Z,14.90
2023-12-24T13:22:44.037Z,15.04
2023-12-24T13:37:45.969Z,15.03
2023-12-24T13:52:47.816Z,14.88
2023-12-24T14:07:49.735Z,14.56
2023-12-24T14:22:52.060Z,14.32
2023-12-24T14:37:54.149Z,14.08
2023-12-24T14:52:56.279Z,13.94
2023-12-24T15:07:58.315Z,13.90
2023-12-24T15:23:00.326Z,13.78
2023-12-24T15:38:02.342Z,13.72
2023-12-24T15:53:04.464Z,13.62
2023-12-24T16:08:06.979Z,13.46
2023-12-24T16:23:10.429Z,13.39
2023-12-24T16:38:12.441Z,13.29
2023-12-24T16:53:17.130Z,13.30
2023-12-24T17:08:19.324Z,13.26
2023-12-24T17:23:21.341Z,13.11
2023-12-24T17:38:23.255Z,12.95
2023-12-24T17:53:25.282Z,12.91
2023-12-24T18:08:27.198Z,12.81
2023-12-24T18:23:29.113Z,12.70
2023-12-24T18:38:32.450Z,12.61
2023-12-24T18:53:35.032Z,12.58
2023-12-24T19:08:37.073Z,12.40
2023-12-24T19:23:39.788Z,12.42
2023-12-24T19:38:41.786Z,12.47
2023-12-24T19:53:43.939Z,12.48
2023-12-24T20:08:46.003Z,12.43
2023-12-24T20:23:50.204Z,12.04
2023-12-24T20:38:52.607Z,10.85
2023-12-24T20:53:54.609Z,9.47
2023-12-24T21:08:58.368Z,8.86
2023-12-24T21:24:00.382Z,8.94
2023-12-24T21:39:02.355Z,8.98
2023-12-24T21:54:04.251Z,9.09
2023-12-24T22:09:06.165Z,9.11
2023-12-24T22:24:08.554Z,9.40
2023-12-24T22:39:10.504Z,9.50
2023-12-24T22:54:12.499Z,9.38
2023-12-24T23:09:14.493Z,9.64
2023-12-24T23:24:16.755Z,9.59
2023-12-24T23:39:18.780Z,9.62
2023-12-24T23:54:20.688Z,9.37
